Terminal Aerodrome Forecast
Issued by NWS

Home | Current Version | Previous Version | Text Only | Print | Product List | Glossary On
Versions: 1 2 3 4 5 6 7 8 9 10 11 12 13 14 15 16
000
FTUS44 KBMX 281134
TAFANB
TAF
KANB 281134Z 2812/2912 06003KT P6SM FEW080
     FM281600 10005KT P6SM SCT100
     FM290000 13004KT P6SM BKN080
     FM291100 12005KT P6SM VCTS BKN060CB=

USA.gov is the U.S. government's official web portal to all federal, state and local government web resources and services.